Time,TemperatureF,DewpointF,PressureIn,WindDirection,WindDirectionDegrees,WindSpeedMPH,WindSpeedGustMPH,Humidity,HourlyPrecipIn,Conditions,Clouds,dailyrainin,SoftwareType,DateUTC
2013-07-18 00:07:00,55.0,50.0,30.06,NNW,331,0.0,1.0,84,0.00,,,0.00,weatherlink.com 1.10,2013-07-18 07:07:00,
2013-07-18 00:22:00,54.6,50.0,30.05,NNW,331,0.0,0.0,84,0.00,,,0.00,weatherlink.com 1.10,2013-07-18 07:22:00,
2013-07-18 00:37:00,54.2,50.0,30.05,NNW,331,0.0,0.0,86,0.00,,,0.00,weatherlink.com 1.10,2013-07-18 07:37:00,
2013-07-18 00:52:00,53.9,50.0,30.05,NNW,331,0.0,0.0,86,0.00,,,0.00,weatherlink.com 1.10,2013-07-18 07:52:00,
2013-07-18 01:07:00,53.6,50.0,30.05,NNW,331,0.0,1.0,87,0.00,,,0.00,weatherlink.com 1.10,2013-07-18 08:07:00,
2013-07-18 01:22:00,53.6,50.0,30.05,NNW,331,0.0,0.0,87,0.00,,,0.00,weatherlink.com 1.10,2013-07-18 08:22:00,
2013-07-18 01:37:00,54.1,50.0,30.05,NNW,331,0.0,0.0,87,0.00,,,0.00,weatherlink.com 1.10,2013-07-18 08:37:00,
2013-07-18 01:53:00,54.9,51.0,30.05,NNW,331,0.0,0.0,87,0.00,,,0.00,weatherlink.com 1.10,2013-07-18 08:53:00,
2013-07-18 02:08:00,55.5,52.0,30.04,NNW,331,0.0,0.0,87,0.00,,,0.00,weatherlink.com 1.10,2013-07-18 09:08:00,
2013-07-18 02:23:00,56.2,52.0,30.04,NNW,331,0.0,1.0,86,0.00,,,0.00,weatherlink.com 1.10,2013-07-18 09:23:00,
2013-07-18 02:38:00,56.8,53.0,30.04,South,170,3.0,5.0,87,0.00,,,0.00,weatherlink.com 1.10,2013-07-18 09:38:00,
2013-07-18 02:53:00,57.1,53.0,30.03,SE,137,3.0,4.0,86,0.00,,,0.00,weatherlink.com 1.10,2013-07-18 09:53:00,
2013-07-18 03:08:00,56.9,53.0,30.03,SE,134,2.0,3.0,86,0.00,,,0.00,weatherlink.com 1.10,2013-07-18 10:08:00,
2013-07-18 03:23:00,56.8,53.0,30.03,SE,134,0.0,2.0,87,0.00,,,0.00,weatherlink.com 1.10,2013-07-18 10:23:00,
2013-07-18 03:38:00,56.8,53.0,30.02,SE,134,1.0,3.0,87,0.00,,,0.00,weatherlink.com 1.10,2013-07-18 10:38:00,
2013-07-18 03:53:00,57.0,53.0,30.02,SE,134,2.0,4.0,87,0.00,,,0.00,weatherlink.com 1.10,2013-07-18 10:53:00,
2013-07-18 04:08:00,57.1,53.0,30.02,SE,134,0.0,3.0,87,0.00,,,0.00,weatherlink.com 1.10,2013-07-18 11:08:00,
2013-07-18 04:23:00,57.1,53.0,30.02,SSE,158,2.0,4.0,87,0.00,,,0.00,weatherlink.com 1.10,2013-07-18 11:23:00,
2013-07-18 04:38:00,56.9,53.0,30.02,SSE,160,1.0,2.0,87,0.00,,,0.00,weatherlink.com 1.10,2013-07-18 11:38:00,
2013-07-18 04:53:00,57.0,53.0,30.02,SE,142,2.0,3.0,87,0.00,,,0.00,weatherlink.com 1.10,2013-07-18 11:53:00,
2013-07-18 05:08:00,57.0,53.0,30.02,SE,142,1.0,2.0,86,0.00,,,0.00,weatherlink.com 1.10,2013-07-18 12:08:00,
2013-07-18 05:23:00,57.1,53.0,30.02,SE,142,0.0,2.0,86,0.00,,,0.00,weatherlink.com 1.10,2013-07-18 12:23:00,
2013-07-18 05:38:00,57.0,53.0,30.02,SSE,157,0.0,3.0,86,0.00,,,0.00,weatherlink.com 1.10,2013-07-18 12:38:00,
2013-07-18 05:53:00,56.8,53.0,30.03,SE,136,2.0,3.0,87,0.00,,,0.00,weatherlink.com 1.10,2013-07-18 12:53:00,
2013-07-18 06:08:00,56.9,53.0,30.03,East,97,1.0,3.0,87,0.00,,,0.00,weatherlink.com 1.10,2013-07-18 13:08:00,
2013-07-18 06:23:00,56.9,53.0,30.03,SE,124,0.0,4.0,87,0.00,,,0.00,weatherlink.com 1.10,2013-07-18 13:23:00,
2013-07-18 06:38:00,57.0,53.0,30.03,South,173,1.0,4.0,87,0.00,,,0.00,weatherlink.com 1.10,2013-07-18 13:38:00,
2013-07-18 06:53:00,57.1,53.0,30.03,South,173,1.0,4.0,86,0.00,,,0.00,weatherlink.com 1.10,2013-07-18 13:53:00,
2013-07-18 07:08:00,57.3,53.0,30.04,South,180,0.0,3.0,86,0.00,,,0.00,weatherlink.com 1.10,2013-07-18 14:08:00,
2013-07-18 07:23:00,57.5,53.0,30.04,East,100,0.0,3.0,86,0.00,,,0.00,weatherlink.com 1.10,2013-07-18 14:23:00,
2013-07-18 07:38:00,57.9,54.0,30.04,ENE,63,1.0,3.0,85,0.00,,,0.00,weatherlink.com 1.10,2013-07-18 14:38:00,
2013-07-18 07:53:00,58.1,53.0,30.04,SSW,198,0.0,5.0,84,0.00,,,0.00,weatherlink.com 1.10,2013-07-18 14:53:00,
2013-07-18 08:08:00,58.6,54.0,30.04,South,174,1.0,4.0,84,0.00,,,0.00,weatherlink.com 1.10,2013-07-18 15:08:00,
2013-07-18 08:23:00,59.1,54.0,30.04,South,178,3.0,5.0,82,0.00,,,0.00,weatherlink.com 1.10,2013-07-18 15:23:00,
2013-07-18 08:38:00,59.8,54.0,30.04,SSE,163,2.0,4.0,81,0.00,,,0.00,weatherlink.com 1.10,2013-07-18 15:38:00,
2013-07-18 08:53:00,61.2,55.0,30.04,SSE,148,1.0,4.0,79,0.00,,,0.00,weatherlink.com 1.10,2013-07-18 15:53:00,
2013-07-18 09:08:00,62.8,55.0,30.04,ENE,63,2.0,3.0,76,0.00,,,0.00,weatherlink.com 1.10,2013-07-18 16:08:00,
2013-07-18 09:23:00,63.9,55.0,30.04,WNW,296,1.0,4.0,74,0.00,,,0.00,weatherlink.com 1.10,2013-07-18 16:23:00,
2013-07-18 09:38:00,64.6,56.0,30.03,North,10,1.0,6.0,73,0.00,,,0.00,weatherlink.com 1.10,2013-07-18 16:38:00,
2013-07-18 09:53:00,64.8,56.0,30.03,North,5,0.0,8.0,73,0.00,,,0.00,weatherlink.com 1.10,2013-07-18 16:53:00,
2013-07-18 10:08:00,66.1,56.0,30.02,NE,48,4.0,4.0,70,0.00,,,0.00,weatherlink.com 1.10,2013-07-18 17:08:00,
2013-07-18 10:23:00,66.3,56.0,30.03,ENE,57,2.0,6.0,70,0.00,,,0.00,weatherlink.com 1.10,2013-07-18 17:23:00,
2013-07-18 10:38:00,67.1,57.0,30.02,ENE,61,3.0,7.0,70,0.00,,,0.00,weatherlink.com 1.10,2013-07-18 17:38:00,
2013-07-18 10:53:00,67.1,57.0,30.02,NW,305,2.0,6.0,70,0.00,,,0.00,weatherlink.com 1.10,2013-07-18 17:53:00,
2013-07-18 11:09:00,68.2,57.0,30.02,NE,52,7.0,7.0,68,0.00,,,0.00,weatherlink.com 1.10,2013-07-18 18:09:00,
2013-07-18 11:24:00,67.6,57.0,30.02,ENE,58,0.0,6.0,70,0.00,,,0.00,weatherlink.com 1.10,2013-07-18 18:24:00,
2013-07-18 11:39:00,68.2,58.0,30.02,North,11,2.0,8.0,70,0.00,,,0.00,weatherlink.com 1.10,2013-07-18 18:39:00,
2013-07-18 11:54:00,68.9,58.0,30.01,NE,46,3.0,7.0,68,0.00,,,0.00,weatherlink.com 1.10,2013-07-18 18:54:00,
2013-07-18 12:09:00,69.1,58.0,30.01,ENE,63,3.0,7.0,68,0.00,,,0.00,weatherlink.com 1.10,2013-07-18 19:09:00,
2013-07-18 12:24:00,69.5,59.0,30.00,NE,44,3.0,7.0,69,0.00,,,0.00,weatherlink.com 1.10,2013-07-18 19:24:00,
2013-07-18 12:39:00,71.3,57.0,30.00,NNE,29,5.0,9.0,62,0.00,,,0.00,weatherlink.com 1.10,2013-07-18 19:39:00,
2013-07-18 12:54:00,71.7,58.0,29.99,NE,45,4.0,11.0,62,0.00,,,0.00,weatherlink.com 1.10,2013-07-18 19:54:00,
2013-07-18 13:09:00,71.3,57.0,29.99,North,11,4.0,9.0,62,0.00,,,0.00,weatherlink.com 1.10,2013-07-18 20:09:00,
2013-07-18 13:24:00,72.5,58.0,29.99,NE,46,5.0,8.0,61,0.00,,,0.00,weatherlink.com 1.10,2013-07-18 20:24:00,
2013-07-18 13:39:00,72.6,57.0,29.99,NE,44,2.0,8.0,59,0.00,,,0.00,weatherlink.com 1.10,2013-07-18 20:39:00,
2013-07-18 13:54:00,73.0,57.0,29.99,NNW,344,5.0,9.0,57,0.00,,,0.00,weatherlink.com 1.10,2013-07-18 20:54:00,
2013-07-18 14:09:00,73.4,58.0,29.98,North,360,4.0,9.0,58,0.00,,,0.00,weatherlink.com 1.10,2013-07-18 21:09:00,
2013-07-18 14:24:00,74.0,57.0,29.97,NNE,30,8.0,9.0,56,0.00,,,0.00,weatherlink.com 1.10,2013-07-18 21:24:00,
2013-07-18 14:39:00,76.0,58.0,29.96,NNE,19,3.0,9.0,54,0.00,,,0.00,weatherlink.com 1.10,2013-07-18 21:39:00,
2013-07-18 14:54:00,78.3,54.0,29.96,NNE,17,9.0,10.0,43,0.00,,,0.00,weatherlink.com 1.10,2013-07-18 21:54:00,
2013-07-18 15:09:00,80.2,54.0,29.95,North,5,3.0,11.0,40,0.00,,,0.00,weatherlink.com 1.10,2013-07-18 22:09:00,
2013-07-18 15:24:00,81.0,52.0,29.95,NNE,20,7.0,9.0,37,0.00,,,0.00,weatherlink.com 1.10,2013-07-18 22:24:00,
2013-07-18 15:39:00,81.6,53.0,29.94,North,9,2.0,10.0,37,0.00,,,0.00,weatherlink.com 1.10,2013-07-18 22:39:00,
2013-07-18 15:54:00,83.4,53.0,29.93,North,355,6.0,8.0,35,0.00,,,0.00,weatherlink.com 1.10,2013-07-18 22:54:00,
2013-07-18 16:09:00,83.8,53.0,29.93,NW,323,2.0,8.0,35,0.00,,,0.00,weatherlink.com 1.10,2013-07-18 23:09:00,
2013-07-18 16:24:00,83.1,53.0,29.92,NNW,336,3.0,11.0,35,0.00,,,0.00,weatherlink.com 1.10,2013-07-18 23:24:00,
2013-07-18 16:39:00,82.6,53.0,29.92,NNW,331,4.0,9.0,36,0.00,,,0.00,weatherlink.com 1.10,2013-07-18 23:39:00,
2013-07-18 16:54:00,81.3,53.0,29.92,WSW,258,3.0,11.0,38,0.00,,,0.00,weatherlink.com 1.10,2013-07-18 23:54:00,
2013-07-18 17:10:00,80.5,53.0,29.92,NNE,12,4.0,9.0,39,0.00,,,0.00,weatherlink.com 1.10,2013-07-19 00:10:00,
2013-07-18 17:25:00,80.2,53.0,29.92,NW,307,5.0,8.0,39,0.00,,,0.00,weatherlink.com 1.10,2013-07-19 00:25:00,
2013-07-18 17:40:00,79.4,53.0,29.92,North,355,5.0,8.0,40,0.00,,,0.00,weatherlink.com 1.10,2013-07-19 00:40:00,
2013-07-18 17:55:00,78.2,53.0,29.91,North,360,2.0,10.0,41,0.00,,,0.00,weatherlink.com 1.10,2013-07-19 00:55:00,
2013-07-18 18:10:00,78.1,52.0,29.91,NNW,331,6.0,8.0,41,0.00,,,0.00,weatherlink.com 1.10,2013-07-19 01:10:00,
2013-07-18 18:25:00,76.0,53.0,29.91,WNW,299,3.0,10.0,45,0.00,,,0.00,weatherlink.com 1.10,2013-07-19 01:25:00,
2013-07-18 18:40:00,75.3,52.0,29.91,WNW,290,3.0,7.0,45,0.00,,,0.00,weatherlink.com 1.10,2013-07-19 01:40:00,
2013-07-18 18:55:00,74.7,52.0,29.91,NW,319,2.0,7.0,45,0.00,,,0.00,weatherlink.com 1.10,2013-07-19 01:55:00,
2013-07-18 19:10:00,74.6,52.0,29.91,North,9,4.0,4.0,45,0.00,,,0.00,weatherlink.com 1.10,2013-07-19 02:10:00,
2013-07-18 19:25:00,73.3,51.0,29.92,WNW,302,0.0,6.0,45,0.00,,,0.00,weatherlink.com 1.10,2013-07-19 02:25:00,
2013-07-18 19:40:00,72.9,51.0,29.92,NNW,339,2.0,4.0,46,0.00,,,0.00,weatherlink.com 1.10,2013-07-19 02:40:00,
2013-07-18 19:55:00,70.6,50.0,29.92,NNW,327,0.0,4.0,49,0.00,,,0.00,weatherlink.com 1.10,2013-07-19 02:55:00,
2013-07-18 20:10:00,68.9,50.0,29.93,NW,322,2.0,4.0,52,0.00,,,0.00,weatherlink.com 1.10,2013-07-19 03:10:00,
2013-07-18 20:25:00,68.0,51.0,29.93,WNW,293,1.0,3.0,54,0.00,,,0.00,weatherlink.com 1.10,2013-07-19 03:25:00,
2013-07-18 20:40:00,66.0,50.0,29.93,WNW,294,1.0,3.0,57,0.00,,,0.00,weatherlink.com 1.10,2013-07-19 03:40:00,
2013-07-18 20:55:00,64.5,50.0,29.93,WNW,294,0.0,2.0,60,0.00,,,0.00,weatherlink.com 1.10,2013-07-19 03:55:00,
2013-07-18 21:10:00,64.1,53.0,29.94,SSE,153,3.0,6.0,68,0.00,,,0.00,weatherlink.com 1.10,2013-07-19 04:10:00,
2013-07-18 21:25:00,63.4,53.0,29.94,SSE,163,1.0,6.0,70,0.00,,,0.00,weatherlink.com 1.10,2013-07-19 04:25:00,
2013-07-18 21:40:00,62.4,52.0,29.95,SSE,165,3.0,5.0,69,0.00,,,0.00,weatherlink.com 1.10,2013-07-19 04:40:00,
2013-07-18 21:55:00,61.4,52.0,29.95,South,171,2.0,4.0,72,0.00,,,0.00,weatherlink.com 1.10,2013-07-19 04:55:00,
2013-07-18 22:10:00,60.8,53.0,29.95,SSE,161,2.0,4.0,75,0.00,,,0.00,weatherlink.com 1.10,2013-07-19 05:10:00,
2013-07-18 22:25:00,60.3,53.0,29.96,SSW,199,2.0,4.0,77,0.00,,,0.00,weatherlink.com 1.10,2013-07-19 05:25:00,
2013-07-18 22:40:00,60.0,53.0,29.95,South,180,1.0,4.0,78,0.00,,,0.00,weatherlink.com 1.10,2013-07-19 05:40:00,
2013-07-18 22:55:00,59.7,53.0,29.95,SSE,168,0.0,3.0,78,0.00,,,0.00,weatherlink.com 1.10,2013-07-19 05:55:00,
2013-07-18 23:10:00,59.1,52.0,29.95,SSE,168,0.0,1.0,78,0.00,,,0.00,weatherlink.com 1.10,2013-07-19 06:10:00,
2013-07-18 23:25:00,58.7,53.0,29.95,SSE,168,0.0,1.0,80,0.00,,,0.00,weatherlink.com 1.10,2013-07-19 06:25:00,
2013-07-18 23:40:00,58.4,53.0,29.95,SSE,168,0.0,2.0,81,0.00,,,0.00,weatherlink.com 1.10,2013-07-19 06:40:00,
2013-07-18 23:55:00,58.0,53.0,29.95,SSE,168,0.0,0.0,82,0.00,,,0.00,weatherlink.com 1.10,2013-07-19 06:55:00,